sensor_id;sensor_type;location;lat;lon;timestamp;temperature;humidity
12111;DHT22;6119;52.372;8.990;2022-12-18T00:01:56;-5.90;99.90
12111;DHT22;6119;52.372;8.990;2022-12-18T00:04:45;-5.80;99.90
12111;DHT22;6119;52.372;8.990;2022-12-18T00:07:33;-5.80;99.90
12111;DHT22;6119;52.372;8.990;2022-12-18T00:10:20;-5.80;99.90
12111;DHT22;6119;52.372;8.990;2022-12-18T00:13:07;-5.80;99.90
12111;DHT22;6119;52.372;8.990;2022-12-18T00:15:55;-5.70;99.90
12111;DHT22;6119;52.372;8.990;2022-12-18T00:18:42;-5.80;99.90
12111;DHT22;6119;52.372;8.990;2022-12-18T00:21:32;-5.70;99.90
12111;DHT22;6119;52.372;8.990;2022-12-18T00:24:18;-5.70;99.90
12111;DHT22;6119;52.372;8.990;2022-12-18T00:27:05;-5.60;99.90
12111;DHT22;6119;52.372;8.990;2022-12-18T00:29:51;-5.60;99.90
12111;DHT22;6119;52.372;8.990;2022-12-18T00:32:39;-5.60;99.90
12111;DHT22;6119;52.372;8.990;2022-12-18T00:35:26;-5.60;99.90
12111;DHT22;6119;52.372;8.990;2022-12-18T00:38:14;-5.60;99.90
12111;DHT22;6119;52.372;8.990;2022-12-18T00:41:01;-5.60;99.90
12111;DHT22;6119;52.372;8.990;2022-12-18T00:43:48;-5.70;99.90
12111;DHT22;6119;52.372;8.990;2022-12-18T00:46:33;-5.60;99.90
12111;DHT22;6119;52.372;8.990;2022-12-18T00:49:20;-5.60;99.90
12111;DHT22;6119;52.372;8.990;2022-12-18T00:52:06;-5.60;99.90
12111;DHT22;6119;52.372;8.990;2022-12-18T00:54:54;-5.70;99.90
12111;DHT22;6119;52.372;8.990;2022-12-18T00:57:44;-5.70;99.90
12111;DHT22;6119;52.372;8.990;2022-12-18T01:00:31;-5.80;99.90
12111;DHT22;6119;52.372;8.990;2022-12-18T01:03:18;-5.80;99.90
12111;DHT22;6119;52.372;8.990;2022-12-18T01:06:06;-5.80;99.90
12111;DHT22;6119;52.372;8.990;2022-12-18T01:08:53;-5.80;99.90
12111;DHT22;6119;52.372;8.990;2022-12-18T01:11:41;-5.80;99.90
12111;DHT22;6119;52.372;8.990;2022-12-18T01:14:28;-5.80;99.90
12111;DHT22;6119;52.372;8.990;2022-12-18T01:17:14;-5.80;99.90
12111;DHT22;6119;52.372;8.990;2022-12-18T01:20:01;-5.80;99.90
12111;DHT22;6119;52.372;8.990;2022-12-18T01:22:48;-5.70;99.90
12111;DHT22;6119;52.372;8.990;2022-12-18T01:25:36;-5.80;99.90
12111;DHT22;6119;52.372;8.990;2022-12-18T01:28:23;-5.80;99.90
12111;DHT22;6119;52.372;8.990;2022-12-18T01:31:12;-5.80;99.90
12111;DHT22;6119;52.372;8.990;2022-12-18T01:34:01;-5.70;99.90
12111;DHT22;6119;52.372;8.990;2022-12-18T01:36:48;-5.70;99.90
12111;DHT22;6119;52.372;8.990;2022-12-18T01:39:37;-5.70;99.90
12111;DHT22;6119;52.372;8.990;2022-12-18T01:42:24;-5.80;99.90
12111;DHT22;6119;52.372;8.990;2022-12-18T01:45:26;-5.80;99.90
12111;DHT22;6119;52.372;8.990;2022-12-18T01:48:13;-5.70;99.90
12111;DHT22;6119;52.372;8.990;2022-12-18T01:51:00;-5.80;99.90
12111;DHT22;6119;52.372;8.990;2022-12-18T01:53:47;-5.80;99.90
12111;DHT22;6119;52.372;8.990;2022-12-18T01:56:34;-5.80;99.90
12111;DHT22;6119;52.372;8.990;2022-12-18T01:59:21;-5.80;99.90
12111;DHT22;6119;52.372;8.990;2022-12-18T02:02:09;-5.90;99.90
12111;DHT22;6119;52.372;8.990;2022-12-18T02:04:58;-5.90;99.90
12111;DHT22;6119;52.372;8.990;2022-12-18T02:07:52;-5.90;99.90
12111;DHT22;6119;52.372;8.990;2022-12-18T02:10:47;-6.00;99.90
12111;DHT22;6119;52.372;8.990;2022-12-18T02:13:43;-6.00;99.90
12111;DHT22;6119;52.372;8.990;2022-12-18T02:16:40;-4.80;99.90
12111;DHT22;6119;52.372;8.990;2022-12-18T02:19:46;-6.00;99.90
12111;DHT22;6119;52.372;8.990;2022-12-18T02:22:39;-6.00;99.90
12111;DHT22;6119;52.372;8.990;2022-12-18T02:25:51;-6.00;99.90
12111;DHT22;6119;52.372;8.990;2022-12-18T02:28:42;-6.10;99.90
12111;DHT22;6119;52.372;8.990;2022-12-18T02:31:34;-6.10;99.90
12111;DHT22;6119;52.372;8.990;2022-12-18T02:34:29;-6.00;99.90
12111;DHT22;6119;52.372;8.990;2022-12-18T02:37:18;-6.00;99.90
12111;DHT22;6119;52.372;8.990;2022-12-18T02:40:08;-6.00;99.90
12111;DHT22;6119;52.372;8.990;2022-12-18T02:43:02;-6.10;99.90
12111;DHT22;6119;52.372;8.990;2022-12-18T02:45:52;-6.10;99.90
12111;DHT22;6119;52.372;8.990;2022-12-18T02:48:39;-6.20;99.90
12111;DHT22;6119;52.372;8.990;2022-12-18T02:51:30;-6.20;99.90
12111;DHT22;6119;52.372;8.990;2022-12-18T02:54:29;-6.10;99.90
12111;DHT22;6119;52.372;8.990;2022-12-18T02:57:24;-6.10;99.90
12111;DHT22;6119;52.372;8.990;2022-12-18T03:00:21;-6.10;99.90
12111;DHT22;6119;52.372;8.990;2022-12-18T03:03:14;-6.20;99.90
12111;DHT22;6119;52.372;8.990;2022-12-18T03:06:07;-6.20;99.90
12111;DHT22;6119;52.372;8.990;2022-12-18T03:08:58;-6.30;99.90
12111;DHT22;6119;52.372;8.990;2022-12-18T03:11:47;-6.20;99.90
12111;DHT22;6119;52.372;8.990;2022-12-18T03:14:57;-6.30;99.90
12111;DHT22;6119;52.372;8.990;2022-12-18T03:17:52;-6.30;99.90
12111;DHT22;6119;52.372;8.990;2022-12-18T03:20:42;-6.30;99.90
12111;DHT22;6119;52.372;8.990;2022-12-18T03:23:33;-6.30;99.90
12111;DHT22;6119;52.372;8.990;2022-12-18T03:26:24;-6.30;99.90
12111;DHT22;6119;52.372;8.990;2022-12-18T03:29:14;-6.30;99.90
12111;DHT22;6119;52.372;8.990;2022-12-18T03:32:06;-6.40;99.90
12111;DHT22;6119;52.372;8.990;2022-12-18T03:34:57;-6.40;99.90
12111;DHT22;6119;52.372;8.990;2022-12-18T03:37:46;-6.40;99.90
12111;DHT22;6119;52.372;8.990;2022-12-18T03:40:41;-6.40;99.90
12111;DHT22;6119;52.372;8.990;2022-12-18T03:43:36;-6.40;99.90
12111;DHT22;6119;52.372;8.990;2022-12-18T03:46:29;-6.50;99.90
12111;DHT22;6119;52.372;8.990;2022-12-18T03:49:24;-6.60;99.90
12111;DHT22;6119;52.372;8.990;2022-12-18T03:52:18;-6.60;99.90
12111;DHT22;6119;52.372;8.990;2022-12-18T03:55:07;-6.50;99.90
12111;DHT22;6119;52.372;8.990;2022-12-18T03:57:56;-6.60;99.90
12111;DHT22;6119;52.372;8.990;2022-12-18T04:00:44;-6.60;99.90
12111;DHT22;6119;52.372;8.990;2022-12-18T04:03:32;-6.60;99.90
12111;DHT22;6119;52.372;8.990;2022-12-18T04:06:21;-6.70;99.90
12111;DHT22;6119;52.372;8.990;2022-12-18T04:09:09;-6.60;99.90
12111;DHT22;6119;52.372;8.990;2022-12-18T04:11:56;-6.60;99.90
12111;DHT22;6119;52.372;8.990;2022-12-18T04:14:43;-6.60;99.90
12111;DHT22;6119;52.372;8.990;2022-12-18T04:17:30;-6.70;99.90
12111;DHT22;6119;52.372;8.990;2022-12-18T04:20:17;-6.70;99.90
12111;DHT22;6119;52.372;8.990;2022-12-18T04:23:03;-6.70;99.90
12111;DHT22;6119;52.372;8.990;2022-12-18T04:25:51;-6.80;99.90
12111;DHT22;6119;52.372;8.990;2022-12-18T04:28:38;-6.80;99.90
12111;DHT22;6119;52.372;8.990;2022-12-18T04:31:25;-6.80;99.90
12111;DHT22;6119;52.372;8.990;2022-12-18T04:34:12;-6.80;99.90
12111;DHT22;6119;52.372;8.990;2022-12-18T04:36:58;-6.80;99.90
12111;DHT22;6119;52.372;8.990;2022-12-18T04:39:45;-6.80;99.90
12111;DHT22;6119;52.372;8.990;2022-12-18T04:42:33;-6.80;99.90
12111;DHT22;6119;52.372;8.990;2022-12-18T04:45:19;-6.90;99.90
12111;DHT22;6119;52.372;8.990;2022-12-18T04:48:06;-6.90;99.90
12111;DHT22;6119;52.372;8.990;2022-12-18T04:50:53;-6.90;99.90
12111;DHT22;6119;52.372;8.990;2022-12-18T04:53:39;-6.90;99.90
12111;DHT22;6119;52.372;8.990;2022-12-18T04:56:26;-6.90;99.90
12111;DHT22;6119;52.372;8.990;2022-12-18T04:59:14;-6.90;99.90
12111;DHT22;6119;52.372;8.990;2022-12-18T05:02:00;-7.00;99.90
12111;DHT22;6119;52.372;8.990;2022-12-18T05:04:47;-6.90;99.90
12111;DHT22;6119;52.372;8.990;2022-12-18T05:07:34;-7.00;99.90
12111;DHT22;6119;52.372;8.990;2022-12-18T05:10:20;-7.00;99.90
12111;DHT22;6119;52.372;8.990;2022-12-18T05:13:07;-7.00;99.90
12111;DHT22;6119;52.372;8.990;2022-12-18T05:15:55;-7.00;99.90
12111;DHT22;6119;52.372;8.990;2022-12-18T05:18:42;-6.90;99.90
12111;DHT22;6119;52.372;8.990;2022-12-18T05:21:29;-6.90;99.90
12111;DHT22;6119;52.372;8.990;2022-12-18T05:24:16;-6.90;99.90
12111;DHT22;6119;52.372;8.990;2022-12-18T05:27:02;-6.90;99.90
12111;DHT22;6119;52.372;8.990;2022-12-18T05:29:49;-6.90;99.90
12111;DHT22;6119;52.372;8.990;2022-12-18T05:32:37;-7.00;99.90
12111;DHT22;6119;52.372;8.990;2022-12-18T05:35:24;-7.00;99.90
12111;DHT22;6119;52.372;8.990;2022-12-18T05:38:11;-7.00;99.90
12111;DHT22;6119;52.372;8.990;2022-12-18T05:40:58;-7.00;99.90
12111;DHT22;6119;52.372;8.990;2022-12-18T05:43:44;-7.00;99.90
12111;DHT22;6119;52.372;8.990;2022-12-18T05:46:31;-7.00;99.90
12111;DHT22;6119;52.372;8.990;2022-12-18T05:49:19;-6.90;99.90
12111;DHT22;6119;52.372;8.990;2022-12-18T05:52:06;-7.00;99.90
12111;DHT22;6119;52.372;8.990;2022-12-18T05:54:52;-7.00;99.90
12111;DHT22;6119;52.372;8.990;2022-12-18T05:57:39;-7.00;99.90
12111;DHT22;6119;52.372;8.990;2022-12-18T06:00:26;-7.00;99.90
12111;DHT22;6119;52.372;8.990;2022-12-18T06:03:14;-6.90;99.90
12111;DHT22;6119;52.372;8.990;2022-12-18T06:06:02;-7.00;99.90
12111;DHT22;6119;52.372;8.990;2022-12-18T06:08:50;-7.00;99.90
12111;DHT22;6119;52.372;8.990;2022-12-18T06:11:37;-7.00;99.90
12111;DHT22;6119;52.372;8.990;2022-12-18T06:14:24;-7.00;99.90
12111;DHT22;6119;52.372;8.990;2022-12-18T06:17:10;-7.00;99.90
12111;DHT22;6119;52.372;8.990;2022-12-18T06:19:57;-6.90;99.90
12111;DHT22;6119;52.372;8.990;2022-12-18T06:22:45;-7.00;99.90
12111;DHT22;6119;52.372;8.990;2022-12-18T06:25:31;-7.00;99.90
12111;DHT22;6119;52.372;8.990;2022-12-18T06:28:18;-7.00;99.90
12111;DHT22;6119;52.372;8.990;2022-12-18T06:31:06;-7.00;99.90
12111;DHT22;6119;52.372;8.990;2022-12-18T06:33:52;-6.90;99.90
12111;DHT22;6119;52.372;8.990;2022-12-18T06:36:39;-6.90;99.90
12111;DHT22;6119;52.372;8.990;2022-12-18T06:39:28;-7.00;99.90
12111;DHT22;6119;52.372;8.990;2022-12-18T06:42:15;-7.00;99.90
12111;DHT22;6119;52.372;8.990;2022-12-18T06:45:02;-6.90;99.90
12111;DHT22;6119;52.372;8.990;2022-12-18T06:47:49;-7.00;99.90
12111;DHT22;6119;52.372;8.990;2022-12-18T06:50:35;-7.00;99.90
12111;DHT22;6119;52.372;8.990;2022-12-18T06:53:22;-7.00;99.90
12111;DHT22;6119;52.372;8.990;2022-12-18T06:56:10;-7.00;99.90
12111;DHT22;6119;52.372;8.990;2022-12-18T06:58:57;-7.00;99.90
12111;DHT22;6119;52.372;8.990;2022-12-18T07:01:43;-7.00;99.90
12111;DHT22;6119;52.372;8.990;2022-12-18T07:04:31;-7.00;99.90
12111;DHT22;6119;52.372;8.990;2022-12-18T07:07:18;-7.00;99.90
12111;DHT22;6119;52.372;8.990;2022-12-18T07:10:05;-7.00;99.90
12111;DHT22;6119;52.372;8.990;2022-12-18T07:12:53;-6.90;99.90
12111;DHT22;6119;52.372;8.990;2022-12-18T07:15:39;-6.90;99.90
12111;DHT22;6119;52.372;8.990;2022-12-18T07:18:27;-6.90;99.90
12111;DHT22;6119;52.372;8.990;2022-12-18T07:21:16;-6.90;99.90
12111;DHT22;6119;52.372;8.990;2022-12-18T07:24:04;-6.90;99.90
12111;DHT22;6119;52.372;8.990;2022-12-18T07:26:51;-6.90;99.90
12111;DHT22;6119;52.372;8.990;2022-12-18T07:29:40;-6.80;99.90
12111;DHT22;6119;52.372;8.990;2022-12-18T07:32:26;-6.90;99.90
12111;DHT22;6119;52.372;8.990;2022-12-18T07:35:13;-6.80;99.90
12111;DHT22;6119;52.372;8.990;2022-12-18T07:38:05;-6.80;99.90
12111;DHT22;6119;52.372;8.990;2022-12-18T07:40:51;-6.80;99.90
12111;DHT22;6119;52.372;8.990;2022-12-18T07:43:39;-6.80;99.90
12111;DHT22;6119;52.372;8.990;2022-12-18T07:46:28;-6.70;99.90
12111;DHT22;6119;52.372;8.990;2022-12-18T07:49:14;-6.70;99.90
12111;DHT22;6119;52.372;8.990;2022-12-18T07:52:01;-6.60;99.90
12111;DHT22;6119;52.372;8.990;2022-12-18T07:54:47;-6.60;99.90
12111;DHT22;6119;52.372;8.990;2022-12-18T07:57:35;-6.40;99.90
12111;DHT22;6119;52.372;8.990;2022-12-18T08:00:42;-6.40;99.90
12111;DHT22;6119;52.372;8.990;2022-12-18T08:03:30;-6.20;99.90
12111;DHT22;6119;52.372;8.990;2022-12-18T08:06:17;-6.20;99.90
12111;DHT22;6119;52.372;8.990;2022-12-18T08:09:09;-6.10;99.90
12111;DHT22;6119;52.372;8.990;2022-12-18T08:11:56;-6.10;99.90
12111;DHT22;6119;52.372;8.990;2022-12-18T08:14:43;-6.00;99.90
12111;DHT22;6119;52.372;8.990;2022-12-18T08:17:29;-5.80;99.90
12111;DHT22;6119;52.372;8.990;2022-12-18T08:20:17;-5.60;99.90
12111;DHT22;6119;52.372;8.990;2022-12-18T08:23:04;-5.40;99.90
12111;DHT22;6119;52.372;8.990;2022-12-18T08:25:50;-5.30;99.90
12111;DHT22;6119;52.372;8.990;2022-12-18T08:28:37;-5.20;99.90
12111;DHT22;6119;52.372;8.990;2022-12-18T08:31:25;-5.10;99.90
12111;DHT22;6119;52.372;8.990;2022-12-18T08:34:12;-5.10;99.90
12111;DHT22;6119;52.372;8.990;2022-12-18T08:37:00;-5.00;99.90
12111;DHT22;6119;52.372;8.990;2022-12-18T08:39:46;-4.80;99.90
12111;DHT22;6119;52.372;8.990;2022-12-18T08:42:33;-4.70;99.90
12111;DHT22;6119;52.372;8.990;2022-12-18T08:45:37;-4.60;99.90
12111;DHT22;6119;52.372;8.990;2022-12-18T08:48:24;-4.60;99.90
12111;DHT22;6119;52.372;8.990;2022-12-18T08:51:10;-4.50;99.90
12111;DHT22;6119;52.372;8.990;2022-12-18T08:53:58;-4.30;99.90
12111;DHT22;6119;52.372;8.990;2022-12-18T08:56:45;-4.20;99.90
12111;DHT22;6119;52.372;8.990;2022-12-18T08:59:32;-4.10;99.90
12111;DHT22;6119;52.372;8.990;2022-12-18T09:02:18;-4.00;99.90
12111;DHT22;6119;52.372;8.990;2022-12-18T09:05:06;-3.80;99.90
12111;DHT22;6119;52.372;8.990;2022-12-18T09:07:52;-3.70;99.90
12111;DHT22;6119;52.372;8.990;2022-12-18T09:10:43;-3.50;99.90
12111;DHT22;6119;52.372;8.990;2022-12-18T09:13:30;-3.40;99.90
12111;DHT22;6119;52.372;8.990;2022-12-18T09:16:17;-3.20;99.90
12111;DHT22;6119;52.372;8.990;2022-12-18T09:19:05;-3.00;99.90
12111;DHT22;6119;52.372;8.990;2022-12-18T09:21:52;-2.80;99.90
12111;DHT22;6119;52.372;8.990;2022-12-18T09:24:38;-2.70;99.90
12111;DHT22;6119;52.372;8.990;2022-12-18T09:27:27;-2.50;99.90
12111;DHT22;6119;52.372;8.990;2022-12-18T09:30:13;-2.40;99.90
12111;DHT22;6119;52.372;8.990;2022-12-18T09:33:00;-2.40;99.90
12111;DHT22;6119;52.372;8.990;2022-12-18T09:35:48;-2.30;99.90
12111;DHT22;6119;52.372;8.990;2022-12-18T09:38:35;-2.20;99.90
12111;DHT22;6119;52.372;8.990;2022-12-18T09:41:34;-2.20;99.90
12111;DHT22;6119;52.372;8.990;2022-12-18T09:44:27;-2.10;99.90
12111;DHT22;6119;52.372;8.990;2022-12-18T09:47:18;-2.10;99.90
12111;DHT22;6119;52.372;8.990;2022-12-18T09:50:17;-2.00;99.90
12111;DHT22;6119;52.372;8.990;2022-12-18T09:53:11;-2.00;99.90
12111;DHT22;6119;52.372;8.990;2022-12-18T09:56:04;-1.90;99.90
12111;DHT22;6119;52.372;8.990;2022-12-18T09:58:55;-1.80;99.90
12111;DHT22;6119;52.372;8.990;2022-12-18T10:01:44;-1.70;99.90
12111;DHT22;6119;52.372;8.990;2022-12-18T10:04:32;-1.60;99.90
12111;DHT22;6119;52.372;8.990;2022-12-18T10:07:22;-1.50;99.90
12111;DHT22;6119;52.372;8.990;2022-12-18T10:10:21;-1.40;99.90
12111;DHT22;6119;52.372;8.990;2022-12-18T10:13:15;-1.40;99.90
12111;DHT22;6119;52.372;8.990;2022-12-18T10:16:09;-1.30;99.90
12111;DHT22;6119;52.372;8.990;2022-12-18T10:19:17;-1.20;99.90
12111;DHT22;6119;52.372;8.990;2022-12-18T10:22:14;-1.20;99.90
12111;DHT22;6119;52.372;8.990;2022-12-18T10:25:05;-1.10;99.90
12111;DHT22;6119;52.372;8.990;2022-12-18T10:27:55;-1.00;99.90
12111;DHT22;6119;52.372;8.990;2022-12-18T10:30:43;-1.00;99.90
12111;DHT22;6119;52.372;8.990;2022-12-18T10:33:31;-0.90;99.90
12111;DHT22;6119;52.372;8.990;2022-12-18T10:36:20;-0.80;99.90
12111;DHT22;6119;52.372;8.990;2022-12-18T10:39:15;-0.70;99.90
12111;DHT22;6119;52.372;8.990;2022-12-18T10:42:10;-0.70;99.90
12111;DHT22;6119;52.372;8.990;2022-12-18T10:45:02;-0.70;99.90
12111;DHT22;6119;52.372;8.990;2022-12-18T10:47:49;-0.60;99.90
12111;DHT22;6119;52.372;8.990;2022-12-18T10:50:37;-0.60;99.90
12111;DHT22;6119;52.372;8.990;2022-12-18T10:53:52;-0.60;99.90
12111;DHT22;6119;52.372;8.990;2022-12-18T10:56:40;-0.50;99.90
12111;DHT22;6119;52.372;8.990;2022-12-18T10:59:49;-0.40;99.90
12111;DHT22;6119;52.372;8.990;2022-12-18T11:02:37;-0.30;99.90
12111;DHT22;6119;52.372;8.990;2022-12-18T11:05:28;-0.30;99.90
12111;DHT22;6119;52.372;8.990;2022-12-18T11:08:20;-0.20;99.90
12111;DHT22;6119;52.372;8.990;2022-12-18T11:11:18;-0.20;99.90
12111;DHT22;6119;52.372;8.990;2022-12-18T11:14:06;-0.20;99.90
12111;DHT22;6119;52.372;8.990;2022-12-18T11:17:00;-0.20;99.90
12111;DHT22;6119;52.372;8.990;2022-12-18T11:20:21;-0.20;99.90
12111;DHT22;6119;52.372;8.990;2022-12-18T11:23:12;-0.20;99.90
12111;DHT22;6119;52.372;8.990;2022-12-18T11:26:01;-0.20;99.90
12111;DHT22;6119;52.372;8.990;2022-12-18T11:28:52;-0.20;99.90
12111;DHT22;6119;52.372;8.990;2022-12-18T11:31:39;-0.20;99.90
12111;DHT22;6119;52.372;8.990;2022-12-18T11:34:27;-0.20;99.90
12111;DHT22;6119;52.372;8.990;2022-12-18T11:37:17;-0.20;99.90
12111;DHT22;6119;52.372;8.990;2022-12-18T11:40:11;-0.20;99.90
12111;DHT22;6119;52.372;8.990;2022-12-18T11:43:06;-0.20;99.90
12111;DHT22;6119;52.372;8.990;2022-12-18T11:46:01;-0.20;99.90
12111;DHT22;6119;52.372;8.990;2022-12-18T11:48:52;-0.10;99.90
12111;DHT22;6119;52.372;8.990;2022-12-18T11:51:47;-0.10;99.90
12111;DHT22;6119;52.372;8.990;2022-12-18T11:54:36;-0.10;99.90
12111;DHT22;6119;52.372;8.990;2022-12-18T11:57:32;-0.10;99.90
12111;DHT22;6119;52.372;8.990;2022-12-18T12:00:21;-0.10;99.90
12111;DHT22;6119;52.372;8.990;2022-12-18T12:03:22;-0.10;99.90
12111;DHT22;6119;52.372;8.990;2022-12-18T12:06:19;-0.10;99.90
12111;DHT22;6119;52.372;8.990;2022-12-18T12:09:12;0.00;99.90
12111;DHT22;6119;52.372;8.990;2022-12-18T12:12:11;0.00;99.90
12111;DHT22;6119;52.372;8.990;2022-12-18T12:15:10;0.10;99.90
12111;DHT22;6119;52.372;8.990;2022-12-18T12:18:04;0.10;99.90
12111;DHT22;6119;52.372;8.990;2022-12-18T12:21:03;0.10;99.90
12111;DHT22;6119;52.372;8.990;2022-12-18T12:23:54;0.10;99.90
12111;DHT22;6119;52.372;8.990;2022-12-18T12:26:52;0.20;99.90
12111;DHT22;6119;52.372;8.990;2022-12-18T12:29:50;0.20;99.90
12111;DHT22;6119;52.372;8.990;2022-12-18T12:32:52;0.30;99.90
12111;DHT22;6119;52.372;8.990;2022-12-18T12:35:47;0.30;99.90
12111;DHT22;6119;52.372;8.990;2022-12-18T12:38:42;0.20;99.90
12111;DHT22;6119;52.372;8.990;2022-12-18T12:41:37;0.20;99.90
12111;DHT22;6119;52.372;8.990;2022-12-18T12:44:44;0.20;99.90
12111;DHT22;6119;52.372;8.990;2022-12-18T12:47:42;0.20;99.90
12111;DHT22;6119;52.372;8.990;2022-12-18T12:50:33;0.20;99.90
12111;DHT22;6119;52.372;8.990;2022-12-18T12:53:25;0.20;99.90
12111;DHT22;6119;52.372;8.990;2022-12-18T12:56:16;0.20;99.90
12111;DHT22;6119;52.372;8.990;2022-12-18T12:59:11;0.10;99.90
12111;DHT22;6119;52.372;8.990;2022-12-18T13:02:06;0.10;99.90
12111;DHT22;6119;52.372;8.990;2022-12-18T13:05:01;0.20;99.90
12111;DHT22;6119;52.372;8.990;2022-12-18T13:07:52;0.10;99.90
12111;DHT22;6119;52.372;8.990;2022-12-18T13:10:42;0.10;99.90
12111;DHT22;6119;52.372;8.990;2022-12-18T13:13:48;0.10;99.90
12111;DHT22;6119;52.372;8.990;2022-12-18T13:16:35;0.10;99.90
12111;DHT22;6119;52.372;8.990;2022-12-18T13:19:23;0.10;99.90
12111;DHT22;6119;52.372;8.990;2022-12-18T13:22:23;0.10;99.90
12111;DHT22;6119;52.372;8.990;2022-12-18T13:25:37;0.20;99.90
12111;DHT22;6119;52.372;8.990;2022-12-18T13:28:52;0.10;99.90
12111;DHT22;6119;52.372;8.990;2022-12-18T13:32:01;0.10;99.90
12111;DHT22;6119;52.372;8.990;2022-12-18T13:34:49;0.10;99.90
12111;DHT22;6119;52.372;8.990;2022-12-18T13:37:45;0.10;99.90
12111;DHT22;6119;52.372;8.990;2022-12-18T13:40:54;0.10;99.90
12111;DHT22;6119;52.372;8.990;2022-12-18T13:43:43;0.00;99.90
12111;DHT22;6119;52.372;8.990;2022-12-18T13:46:42;0.00;99.90
12111;DHT22;6119;52.372;8.990;2022-12-18T13:49:37;0.00;99.90
12111;DHT22;6119;52.372;8.990;2022-12-18T13:52:26;0.00;99.90
12111;DHT22;6119;52.372;8.990;2022-12-18T13:55:18;0.00;99.90
12111;DHT22;6119;52.372;8.990;2022-12-18T13:58:06;0.00;99.90
12111;DHT22;6119;52.372;8.990;2022-12-18T14:00:52;0.00;99.90
12111;DHT22;6119;52.372;8.990;2022-12-18T14:03:41;0.00;99.90
12111;DHT22;6119;52.372;8.990;2022-12-18T14:06:29;0.00;99.90
12111;DHT22;6119;52.372;8.990;2022-12-18T14:09:20;0.00;99.90
12111;DHT22;6119;52.372;8.990;2022-12-18T14:12:16;0.00;99.90
12111;DHT22;6119;52.372;8.990;2022-12-18T14:15:23;0.00;99.90
12111;DHT22;6119;52.372;8.990;2022-12-18T14:18:23;0.00;99.90
12111;DHT22;6119;52.372;8.990;2022-12-18T14:21:19;0.00;99.90
12111;DHT22;6119;52.372;8.990;2022-12-18T14:24:14;0.00;99.90
12111;DHT22;6119;52.372;8.990;2022-12-18T14:27:19;0.00;99.90
12111;DHT22;6119;52.372;8.990;2022-12-18T14:30:24;0.00;99.90
12111;DHT22;6119;52.372;8.990;2022-12-18T14:33:16;0.00;99.90
12111;DHT22;6119;52.372;8.990;2022-12-18T14:36:05;0.00;99.90
12111;DHT22;6119;52.372;8.990;2022-12-18T14:38:54;0.00;99.90
12111;DHT22;6119;52.372;8.990;2022-12-18T14:41:41;0.00;99.90
12111;DHT22;6119;52.372;8.990;2022-12-18T14:44:28;0.00;99.90
12111;DHT22;6119;52.372;8.990;2022-12-18T14:47:34;-0.10;99.90
12111;DHT22;6119;52.372;8.990;2022-12-18T14:50:22;-0.10;99.90
12111;DHT22;6119;52.372;8.990;2022-12-18T14:53:19;-0.10;99.90
12111;DHT22;6119;52.372;8.990;2022-12-18T14:56:17;-0.10;99.90
12111;DHT22;6119;52.372;8.990;2022-12-18T14:59:11;-0.10;99.90
12111;DHT22;6119;52.372;8.990;2022-12-18T15:02:12;-0.10;99.90
12111;DHT22;6119;52.372;8.990;2022-12-18T15:05:03;-0.10;99.90
12111;DHT22;6119;52.372;8.990;2022-12-18T15:07:59;-0.20;99.90
12111;DHT22;6119;52.372;8.990;2022-12-18T15:10:47;-0.20;99.90
12111;DHT22;6119;52.372;8.990;2022-12-18T15:13:35;-0.20;99.90
12111;DHT22;6119;52.372;8.990;2022-12-18T15:16:22;-0.20;99.90
12111;DHT22;6119;52.372;8.990;2022-12-18T15:19:09;-0.30;99.90
12111;DHT22;6119;52.372;8.990;2022-12-18T15:21:56;-0.30;99.90
12111;DHT22;6119;52.372;8.990;2022-12-18T15:24:50;-0.20;99.90
12111;DHT22;6119;52.372;8.990;2022-12-18T15:27:37;-0.30;99.90
12111;DHT22;6119;52.372;8.990;2022-12-18T15:30:26;-0.30;99.90
12111;DHT22;6119;52.372;8.990;2022-12-18T15:33:22;-0.30;99.90
12111;DHT22;6119;52.372;8.990;2022-12-18T15:36:12;-0.30;99.90
12111;DHT22;6119;52.372;8.990;2022-12-18T15:38:59;-0.30;99.90
12111;DHT22;6119;52.372;8.990;2022-12-18T15:41:51;-0.30;99.90
12111;DHT22;6119;52.372;8.990;2022-12-18T15:44:51;-0.30;99.90
12111;DHT22;6119;52.372;8.990;2022-12-18T15:47:40;-0.30;99.90
12111;DHT22;6119;52.372;8.990;2022-12-18T15:50:28;-0.30;99.90
12111;DHT22;6119;52.372;8.990;2022-12-18T15:53:15;-0.20;99.90
12111;DHT22;6119;52.372;8.990;2022-12-18T15:56:01;-0.20;99.90
12111;DHT22;6119;52.372;8.990;2022-12-18T15:59:10;-0.20;99.90
12111;DHT22;6119;52.372;8.990;2022-12-18T16:01:57;-0.20;99.90
12111;DHT22;6119;52.372;8.990;2022-12-18T16:04:46;-0.10;99.90
12111;DHT22;6119;52.372;8.990;2022-12-18T16:07:33;-0.10;99.90
12111;DHT22;6119;52.372;8.990;2022-12-18T16:10:19;0.00;99.90
12111;DHT22;6119;52.372;8.990;2022-12-18T16:13:09;0.00;99.90
12111;DHT22;6119;52.372;8.990;2022-12-18T16:15:56;0.00;99.90
12111;DHT22;6119;52.372;8.990;2022-12-18T16:18:43;0.00;99.90
12111;DHT22;6119;52.372;8.990;2022-12-18T16:21:30;0.10;99.90
12111;DHT22;6119;52.372;8.990;2022-12-18T16:24:20;0.10;99.90
12111;DHT22;6119;52.372;8.990;2022-12-18T16:27:07;0.20;99.90
12111;DHT22;6119;52.372;8.990;2022-12-18T16:29:54;0.20;99.90
12111;DHT22;6119;52.372;8.990;2022-12-18T16:32:40;0.30;99.90
12111;DHT22;6119;52.372;8.990;2022-12-18T16:35:27;0.20;99.90
12111;DHT22;6119;52.372;8.990;2022-12-18T16:38:15;0.30;99.90
12111;DHT22;6119;52.372;8.990;2022-12-18T16:41:02;0.30;99.90
12111;DHT22;6119;52.372;8.990;2022-12-18T16:44:16;0.30;99.90
12111;DHT22;6119;52.372;8.990;2022-12-18T16:47:03;0.30;99.90
12111;DHT22;6119;52.372;8.990;2022-12-18T16:49:51;0.40;99.90
12111;DHT22;6119;52.372;8.990;2022-12-18T16:52:38;0.40;99.90
12111;DHT22;6119;52.372;8.990;2022-12-18T16:55:26;0.40;99.90
12111;DHT22;6119;52.372;8.990;2022-12-18T16:58:13;0.40;99.90
12111;DHT22;6119;52.372;8.990;2022-12-18T17:01:00;0.40;99.90
12111;DHT22;6119;52.372;8.990;2022-12-18T17:03:51;0.40;99.90
12111;DHT22;6119;52.372;8.990;2022-12-18T17:06:40;0.50;99.90
12111;DHT22;6119;52.372;8.990;2022-12-18T17:09:26;0.50;99.90
12111;DHT22;6119;52.372;8.990;2022-12-18T17:12:14;0.50;99.90
12111;DHT22;6119;52.372;8.990;2022-12-18T17:15:01;0.50;99.90
12111;DHT22;6119;52.372;8.990;2022-12-18T17:17:48;0.50;99.90
12111;DHT22;6119;52.372;8.990;2022-12-18T17:20:35;0.50;99.90
12111;DHT22;6119;52.372;8.990;2022-12-18T17:23:21;0.50;99.90
12111;DHT22;6119;52.372;8.990;2022-12-18T17:26:07;0.60;99.90
12111;DHT22;6119;52.372;8.990;2022-12-18T17:28:57;0.60;99.90
12111;DHT22;6119;52.372;8.990;2022-12-18T17:31:44;0.60;99.90
12111;DHT22;6119;52.372;8.990;2022-12-18T17:34:30;0.60;99.90
12111;DHT22;6119;52.372;8.990;2022-12-18T17:37:17;0.60;99.90
12111;DHT22;6119;52.372;8.990;2022-12-18T17:40:04;0.60;99.90
12111;DHT22;6119;52.372;8.990;2022-12-18T17:42:51;0.60;99.90
12111;DHT22;6119;52.372;8.990;2022-12-18T17:45:40;0.70;99.90
12111;DHT22;6119;52.372;8.990;2022-12-18T17:48:26;0.70;99.90
12111;DHT22;6119;52.372;8.990;2022-12-18T17:51:14;0.70;99.90
12111;DHT22;6119;52.372;8.990;2022-12-18T17:54:01;0.70;99.90
12111;DHT22;6119;52.372;8.990;2022-12-18T17:56:48;0.70;99.90
12111;DHT22;6119;52.372;8.990;2022-12-18T17:59:35;0.70;99.90
12111;DHT22;6119;52.372;8.990;2022-12-18T18:02:23;0.70;99.90
12111;DHT22;6119;52.372;8.990;2022-12-18T18:05:11;0.70;99.90
12111;DHT22;6119;52.372;8.990;2022-12-18T18:08:01;0.70;99.90
12111;DHT22;6119;52.372;8.990;2022-12-18T18:10:48;0.70;99.90
12111;DHT22;6119;52.372;8.990;2022-12-18T18:13:35;0.80;99.90
12111;DHT22;6119;52.372;8.990;2022-12-18T18:16:41;0.80;99.90
12111;DHT22;6119;52.372;8.990;2022-12-18T18:19:29;0.80;99.90